Time;durP1;ratioP1;P1;durP2;ratioP2;P2;SDS_P1;SDS_P2;PMS_P1;PMS_P2;Temp;Humidity;BMP_temperature;BMP_pressure;BME280_temperature;BME280_humidity;BME280_pressure;Samples;Min_cycle;Max_cycle;Signal;HPM_P1;HPM_P2
2023/05/13 00:01:43;;;;;;;4.40;4.07;;;;;;;;;;5032045;28;20242;-87
2023/05/13 00:04:11;;;;;;;6.27;3.90;;;;;;;;;;5032462;28;20227;-86
2023/05/13 00:06:38;;;;;;;6.50;4.40;;;;;;;;;;5032099;28;20269;-87
2023/05/13 00:09:05;;;;;;;6.23;4.70;;;;;;;;;;5032487;28;20216;-87
2023/05/13 00:11:32;;;;;;;5.43;4.30;;;;;;;;;;5031991;28;20234;-87
2023/05/13 00:13:59;;;;;;;6.33;4.87;;;;;;;;;;5032494;28;20230;-87
2023/05/13 00:16:28;;;;;;;8.93;4.97;;;;;;;;;;5031973;28;20238;-87
2023/05/13 00:18:55;;;;;;;5.50;4.43;;;;;;;;;;5032221;28;20272;-87
2023/05/13 00:21:22;;;;;;;6.10;4.67;;;;;;;;;;5031647;28;20246;-86
2023/05/13 00:23:49;;;;;;;7.27;4.80;;;;;;;;;;5032061;28;20692;-87
2023/05/13 00:26:17;;;;;;;5.73;4.30;;;;;;;;;;5032048;28;20230;-87
2023/05/13 00:28:44;;;;;;;4.60;4.20;;;;;;;;;;5032886;28;20222;-87
2023/05/13 00:31:11;;;;;;;5.17;4.70;;;;;;;;;;5031832;28;20227;-87
2023/05/13 00:33:39;;;;;;;5.77;5.30;;;;;;;;;;5032261;28;20206;-88
2023/05/13 00:36:08;;;;;;;4.50;4.10;;;;;;;;;;5031931;28;20608;-87
2023/05/13 00:38:36;;;;;;;4.80;4.20;;;;;;;;;;5031524;28;20731;-87
2023/05/13 00:41:03;;;;;;;4.40;4.00;;;;;;;;;;5031690;28;20246;-87
2023/05/13 00:43:30;;;;;;;4.30;3.90;;;;;;;;;;5032050;28;20199;-87
2023/05/13 00:45:57;;;;;;;7.10;4.00;;;;;;;;;;5031522;28;20237;-88
2023/05/13 00:48:24;;;;;;;4.40;4.00;;;;;;;;;;5031836;28;20661;-87
2023/05/13 00:50:53;;;;;;;4.30;4.00;;;;;;;;;;5032755;28;20227;-86
2023/05/13 00:53:20;;;;;;;6.97;4.40;;;;;;;;;;5032252;28;20203;-87
2023/05/13 00:55:47;;;;;;;4.50;4.10;;;;;;;;;;5031765;28;20723;-88
2023/05/13 00:58:16;;;;;;;4.80;4.37;;;;;;;;;;5032404;28;20207;-88
2023/05/13 01:00:46;;;;;;;6.03;4.10;;;;;;;;;;5031708;28;20222;-89
2023/05/13 01:03:14;;;;;;;6.23;4.20;;;;;;;;;;5035609;28;20582;-87
2023/05/13 01:05:44;;;;;;;8.03;3.60;;;;;;;;;;5034419;28;20775;-89
2023/05/13 01:08:16;;;;;;;4.20;3.90;;;;;;;;;;5033788;28;20688;-87
2023/05/13 01:10:46;;;;;;;4.57;4.17;;;;;;;;;;5034741;28;20226;-88
2023/05/13 01:13:15;;;;;;;6.60;4.80;;;;;;;;;;5034830;28;20209;-88
2023/05/13 01:15:46;;;;;;;5.30;4.70;;;;;;;;;;5034237;28;20317;-88
2023/05/13 01:18:15;;;;;;;6.57;4.63;;;;;;;;;;5035266;28;20199;-88
2023/05/13 01:20:43;;;;;;;4.83;4.20;;;;;;;;;;5034552;28;20237;-88
2023/05/13 01:23:11;;;;;;;4.80;4.40;;;;;;;;;;5034585;28;20206;-89
2023/05/13 01:25:38;;;;;;;5.27;4.73;;;;;;;;;;5033733;28;20238;-89
2023/05/13 01:28:06;;;;;;;6.10;4.80;;;;;;;;;;5034859;28;20207;-88
2023/05/13 01:30:33;;;;;;;6.43;4.80;;;;;;;;;;5034123;28;20229;-88
2023/05/13 01:33:00;;;;;;;5.30;4.80;;;;;;;;;;5034774;28;20214;-88
2023/05/13 01:35:29;;;;;;;5.73;4.83;;;;;;;;;;5035114;28;20238;-88
2023/05/13 01:37:57;;;;;;;4.20;3.80;;;;;;;;;;5035834;28;20210;-89
2023/05/13 01:40:26;;;;;;;4.83;4.30;;;;;;;;;;5035307;28;20235;-88
2023/05/13 01:42:53;;;;;;;6.07;4.63;;;;;;;;;;5036727;28;20207;-89
2023/05/13 01:45:20;;;;;;;4.97;4.57;;;;;;;;;;5034732;28;20231;-89
2023/05/13 01:47:47;;;;;;;5.87;5.33;;;;;;;;;;5035000;28;20207;-88
2023/05/13 01:50:14;;;;;;;7.27;5.33;;;;;;;;;;5034084;28;20209;-88
2023/05/13 01:52:41;;;;;;;4.80;4.37;;;;;;;;;;5041262;28;20210;-94
2023/05/13 01:55:09;;;;;;;4.40;4.00;;;;;;;;;;5040516;28;20711;-94
2023/05/13 01:57:38;;;;;;;4.93;4.43;;;;;;;;;;5040632;28;20201;-94
2023/05/13 02:00:05;;;;;;;4.90;4.50;;;;;;;;;;5040098;28;20211;-94
2023/05/13 02:02:32;;;;;;;5.37;4.50;;;;;;;;;;5040334;28;20215;-93
2023/05/13 02:04:59;;;;;;;5.77;4.63;;;;;;;;;;5040272;28;20946;-94
2023/05/13 02:07:26;;;;;;;5.63;4.50;;;;;;;;;;5039241;28;20235;-94
2023/05/13 02:09:58;;;;;;;5.13;4.73;;;;;;;;;;5040274;28;20179;-95
2023/05/13 02:12:25;;;;;;;7.90;5.57;;;;;;;;;;5039635;28;20234;-95
2023/05/13 02:14:54;;;;;;;6.80;5.63;;;;;;;;;;5040071;28;20230;-94
2023/05/13 02:17:21;;;;;;;7.57;5.53;;;;;;;;;;5038560;28;20261;-94
2023/05/13 02:19:48;;;;;;;5.30;4.80;;;;;;;;;;5039566;28;20800;-94
2023/05/13 02:22:15;;;;;;;5.23;4.57;;;;;;;;;;5038426;28;20230;-95
2023/05/13 02:24:42;;;;;;;5.03;4.53;;;;;;;;;;5040028;28;20219;-95
2023/05/13 02:27:11;;;;;;;4.80;4.40;;;;;;;;;;5039456;28;20234;-94
2023/05/13 02:29:38;;;;;;;6.70;5.47;;;;;;;;;;5039754;28;20297;-93
2023/05/13 02:32:07;;;;;;;6.40;5.20;;;;;;;;;;5038150;28;20241;-93
2023/05/13 02:34:34;;;;;;;6.07;5.47;;;;;;;;;;5038178;28;20558;-93
2023/05/13 02:37:03;;;;;;;5.23;4.80;;;;;;;;;;5038200;28;20234;-95
2023/05/13 02:39:30;;;;;;;4.70;4.30;;;;;;;;;;5039900;28;20222;-94
2023/05/13 02:41:58;;;;;;;5.47;4.83;;;;;;;;;;5039000;28;20238;-94
2023/05/13 02:44:25;;;;;;;5.40;4.90;;;;;;;;;;5040029;28;20222;-95
2023/05/13 02:46:52;;;;;;;4.97;4.57;;;;;;;;;;5039181;28;20238;-95
2023/05/13 02:49:21;;;;;;;4.70;4.30;;;;;;;;;;5039866;28;20210;-95
2023/05/13 02:51:48;;;;;;;5.33;4.77;;;;;;;;;;5019086;28;20239;-95
2023/05/13 02:54:15;;;;;;;5.87;4.83;;;;;;;;;;5019924;28;20234;-95
2023/05/13 02:56:42;;;;;;;5.63;5.00;;;;;;;;;;5018812;28;20235;-95
2023/05/13 02:59:10;;;;;;;4.60;4.20;;;;;;;;;;5019834;28;20208;-94
2023/05/13 03:01:37;;;;;;;4.70;4.30;;;;;;;;;;5019097;28;20243;-95
2023/05/13 03:04:04;;;;;;;12.77;4.40;;;;;;;;;;5019751;28;20226;-95
2023/05/13 03:06:32;;;;;;;5.33;4.63;;;;;;;;;;5018953;28;20223;-95
2023/05/13 03:08:59;;;;;;;4.63;4.23;;;;;;;;;;5019591;28;20215;-95
2023/05/13 03:11:26;;;;;;;3.77;3.47;;;;;;;;;;5019216;28;20231;-94
2023/05/13 03:13:54;;;;;;;4.67;4.17;;;;;;;;;;5018537;28;20245;-94
2023/05/13 03:16:21;;;;;;;5.73;3.93;;;;;;;;;;5017560;28;20262;-95
2023/05/13 03:18:48;;;;;;;4.90;4.50;;;;;;;;;;5019747;28;20222;-95
2023/05/13 03:21:15;;;;;;;4.83;4.33;;;;;;;;;;5019006;28;20222;-95
2023/05/13 03:23:43;;;;;;;5.47;4.70;;;;;;;;;;5019094;28;20211;-95
2023/05/13 03:26:10;;;;;;;7.10;4.80;;;;;;;;;;5018713;28;20235;-94
2023/05/13 03:28:37;;;;;;;5.10;4.60;;;;;;;;;;5019217;28;20200;-94
2023/05/13 03:31:04;;;;;;;5.17;4.67;;;;;;;;;;5021279;28;20255;-94
2023/05/13 03:33:32;;;;;;;5.30;4.80;;;;;;;;;;5018370;28;20207;-93
2023/05/13 03:35:59;;;;;;;6.73;4.90;;;;;;;;;;5017848;28;20242;-94
2023/05/13 03:38:26;;;;;;;5.70;5.20;;;;;;;;;;5018789;28;20684;-95
2023/05/13 03:40:54;;;;;;;5.40;4.90;;;;;;;;;;5019273;28;20713;-96
2023/05/13 03:43:21;;;;;;;8.80;5.47;;;;;;;;;;5019039;28;20203;-95
2023/05/13 03:45:50;;;;;;;6.40;4.67;;;;;;;;;;5018698;28;20233;-95
2023/05/13 03:48:17;;;;;;;6.73;5.33;;;;;;;;;;5020564;28;20663;-95
2023/05/13 03:50:44;;;;;;;5.60;5.00;;;;;;;;;;5020108;28;20235;-95
2023/05/13 03:53:11;;;;;;;5.50;4.93;;;;;;;;;;5034643;28;20206;-95
2023/05/13 03:55:39;;;;;;;5.13;4.63;;;;;;;;;;5017866;28;20546;-95
2023/05/13 03:58:13;;;;;;;5.23;4.73;;;;;;;;;;5049922;28;20202;-95
2023/05/13 04:00:40;;;;;;;5.37;4.87;;;;;;;;;;5039339;28;20248;-94
2023/05/13 04:03:07;;;;;;;5.37;4.80;;;;;;;;;;5039850;28;20612;-95
2023/05/13 04:05:34;;;;;;;5.13;4.70;;;;;;;;;;5038549;28;20241;-95
2023/05/13 04:08:01;;;;;;;5.40;4.90;;;;;;;;;;5038489;28;20210;-95
2023/05/13 04:10:28;;;;;;;5.10;4.70;;;;;;;;;;5037670;28;20230;-93
2023/05/13 04:12:56;;;;;;;4.90;4.27;;;;;;;;;;5037737;28;20202;-94
2023/05/13 04:15:24;;;;;;;4.90;4.50;;;;;;;;;;5037559;28;20591;-94
2023/05/13 04:17:52;;;;;;;5.23;4.73;;;;;;;;;;5038181;28;20218;-94
2023/05/13 04:20:19;;;;;;;5.33;4.83;;;;;;;;;;5037553;28;20214;-94
2023/05/13 04:22:46;;;;;;;5.43;4.93;;;;;;;;;;5038439;28;20209;-94
2023/05/13 04:25:14;;;;;;;5.80;5.30;;;;;;;;;;5035364;28;20233;-94
2023/05/13 04:27:41;;;;;;;5.93;4.90;;;;;;;;;;5036268;28;20198;-95
2023/05/13 04:30:08;;;;;;;5.90;5.33;;;;;;;;;;5035390;28;20624;-93
2023/05/13 04:32:37;;;;;;;7.17;5.00;;;;;;;;;;5036587;28;20290;-93
2023/05/13 04:35:05;;;;;;;6.13;5.33;;;;;;;;;;5034989;28;20290;-93
2023/05/13 04:37:32;;;;;;;5.83;5.23;;;;;;;;;;5038543;28;20229;-94
2023/05/13 04:39:59;;;;;;;6.10;5.50;;;;;;;;;;5040188;28;20209;-95
2023/05/13 04:42:26;;;;;;;7.90;5.27;;;;;;;;;;5039851;28;20237;-94
2023/05/13 04:44:53;;;;;;;7.00;6.30;;;;;;;;;;5040670;28;20237;-94
2023/05/13 04:47:20;;;;;;;6.13;5.50;;;;;;;;;;5036957;28;20223;-89
2023/05/13 04:49:49;;;;;;;6.10;5.60;;;;;;;;;;5036870;28;20214;-91
2023/05/13 04:52:16;;;;;;;7.67;6.03;;;;;;;;;;5028103;28;20238;-90
2023/05/13 04:54:43;;;;;;;7.10;5.70;;;;;;;;;;5037236;28;20231;-90
2023/05/13 04:57:10;;;;;;;6.43;5.83;;;;;;;;;;5035258;28;20243;-88
2023/05/13 04:59:37;;;;;;;7.30;6.23;;;;;;;;;;5035943;28;20222;-90
2023/05/13 05:02:04;;;;;;;7.13;6.43;;;;;;;;;;5035390;28;20237;-90
2023/05/13 05:04:32;;;;;;;7.13;6.50;;;;;;;;;;5037765;28;20322;-92
2023/05/13 05:07:01;;;;;;;8.10;7.07;;;;;;;;;;5039304;28;20317;-92
2023/05/13 05:09:28;;;;;;;8.07;7.27;;;;;;;;;;5020046;28;20220;-92
2023/05/13 05:11:56;;;;;;;8.77;6.93;;;;;;;;;;5019086;28;20242;-93
2023/05/13 05:14:23;;;;;;;8.33;7.10;;;;;;;;;;5018019;28;20223;-92
2023/05/13 05:16:50;;;;;;;9.80;7.80;;;;;;;;;;5017371;28;20240;-92
2023/05/13 05:19:22;;;;;;;12.93;8.83;;;;;;;;;;5017570;28;20203;-92
2023/05/13 05:21:49;;;;;;;9.20;8.30;;;;;;;;;;5017731;28;20322;-92
2023/05/13 05:24:18;;;;;;;11.73;9.57;;;;;;;;;;5017857;28;20227;-92
2023/05/13 05:26:45;;;;;;;10.40;8.60;;;;;;;;;;5015755;28;20363;-92
2023/05/13 05:29:18;;;;;;;10.77;9.10;;;;;;;;;;5017235;28;20239;-92
2023/05/13 05:31:46;;;;;;;10.87;9.40;;;;;;;;;;5016674;28;20231;-90
2023/05/13 05:34:13;;;;;;;11.07;9.33;;;;;;;;;;5016255;28;20279;-89
2023/05/13 05:36:40;;;;;;;11.00;9.80;;;;;;;;;;5051242;28;20234;-90
2023/05/13 05:39:07;;;;;;;11.70;9.03;;;;;;;;;;5057230;28;20212;-91
2023/05/13 05:41:36;;;;;;;12.03;9.73;;;;;;;;;;5056074;28;20252;-95
2023/05/13 05:44:03;;;;;;;14.63;9.90;;;;;;;;;;5056156;28;20704;-91
2023/05/13 05:46:30;;;;;;;14.63;10.50;;;;;;;;;;5052489;28;20234;-91
2023/05/13 05:49:01;;;;;;;12.77;10.23;;;;;;;;;;5035034;28;20192;-92
2023/05/13 05:51:28;;;;;;;14.60;11.20;;;;;;;;;;5034679;28;20723;-90
2023/05/13 05:53:55;;;;;;;12.63;10.33;;;;;;;;;;5035035;28;20222;-91
2023/05/13 05:56:22;;;;;;;12.90;11.53;;;;;;;;;;5035289;28;20231;-92
2023/05/13 05:58:50;;;;;;;14.80;11.57;;;;;;;;;;5034307;28;20203;-87
2023/05/13 06:01:18;;;;;;;15.67;12.53;;;;;;;;;;5033074;28;20234;-87
2023/05/13 06:03:45;;;;;;;14.97;11.63;;;;;;;;;;5034113;28;20207;-88
2023/05/13 06:06:20;;;;;;;15.73;11.57;;;;;;;;;;5034418;28;20222;-91
2023/05/13 06:08:47;;;;;;;13.70;11.97;;;;;;;;;;5040791;28;20202;-89
2023/05/13 06:11:15;;;;;;;13.63;10.93;;;;;;;;;;5039199;28;20234;-86
2023/05/13 06:13:43;;;;;;;12.20;10.87;;;;;;;;;;5048853;28;20211;-90
2023/05/13 06:16:11;;;;;;;11.67;10.37;;;;;;;;;;5051128;28;20291;-90
2023/05/13 06:18:41;;;;;;;14.33;10.93;;;;;;;;;;5043786;28;20261;-90
2023/05/13 06:21:09;;;;;;;12.97;10.33;;;;;;;;;;5038420;28;20245;-91
2023/05/13 06:23:36;;;;;;;14.70;10.73;;;;;;;;;;5038051;28;20689;-90
2023/05/13 06:26:03;;;;;;;14.87;10.37;;;;;;;;;;5036522;28;20253;-90
2023/05/13 06:28:30;;;;;;;13.77;10.70;;;;;;;;;;5036376;28;20214;-90
2023/05/13 06:30:58;;;;;;;12.70;9.83;;;;;;;;;;5034555;28;20237;-90
2023/05/13 06:33:28;;;;;;;11.77;10.47;;;;;;;;;;5037159;28;20325;-89
2023/05/13 06:35:55;;;;;;;11.73;10.47;;;;;;;;;;5035971;28;20251;-90
2023/05/13 06:38:23;;;;;;;12.53;10.70;;;;;;;;;;5034561;28;20234;-89
2023/05/13 06:40:50;;;;;;;10.70;9.60;;;;;;;;;;5033361;28;20234;-89
2023/05/13 06:43:17;;;;;;;12.70;10.60;;;;;;;;;;5034050;28;20206;-90
2023/05/13 06:45:44;;;;;;;11.20;10.10;;;;;;;;;;5033401;28;20242;-88
2023/05/13 06:48:11;;;;;;;13.50;10.50;;;;;;;;;;5034311;28;20294;-88
2023/05/13 06:50:39;;;;;;;11.43;10.27;;;;;;;;;;5032506;28;20711;-89
2023/05/13 06:53:06;;;;;;;11.00;9.90;;;;;;;;;;5033445;28;20297;-88
2023/05/13 06:55:40;;;;;;;12.73;10.60;;;;;;;;;;5032541;28;20226;-89
2023/05/13 06:58:07;;;;;;;10.03;9.03;;;;;;;;;;5032990;28;20696;-89
2023/05/13 07:00:37;;;;;;;9.90;8.93;;;;;;;;;;5032268;28;20230;-89
2023/05/13 07:03:04;;;;;;;9.57;8.60;;;;;;;;;;5033639;28;20234;-88
2023/05/13 07:05:32;;;;;;;9.53;8.57;;;;;;;;;;5032392;28;20646;-88
2023/05/13 07:08:05;;;;;;;9.53;8.63;;;;;;;;;;5033377;28;20211;-88
2023/05/13 07:10:32;;;;;;;9.37;8.47;;;;;;;;;;5033487;28;20318;-88
2023/05/13 07:12:59;;;;;;;8.90;8.10;;;;;;;;;;5033423;28;20249;-88
2023/05/13 07:15:26;;;;;;;9.30;7.73;;;;;;;;;;5033980;28;20238;-89
2023/05/13 07:17:53;;;;;;;12.60;8.33;;;;;;;;;;5038150;28;20226;-88
2023/05/13 07:20:21;;;;;;;8.77;6.63;;;;;;;;;;5044068;28;20207;-88
2023/05/13 07:22:48;;;;;;;8.70;6.10;;;;;;;;;;5034992;28;20679;-87
2023/05/13 07:25:17;;;;;;;5.17;4.63;;;;;;;;;;5031090;28;20257;-88
2023/05/13 07:27:46;;;;;;;6.93;4.83;;;;;;;;;;5034241;28;20203;-87
2023/05/13 07:30:14;;;;;;;5.20;4.70;;;;;;;;;;5023872;28;20665;-86
2023/05/13 07:32:41;;;;;;;4.20;3.80;;;;;;;;;;5032425;28;20218;-87
2023/05/13 07:35:09;;;;;;;3.90;3.60;;;;;;;;;;5030869;28;20254;-87
2023/05/13 07:37:36;;;;;;;5.47;3.63;;;;;;;;;;5022442;28;20265;-87
2023/05/13 07:40:04;;;;;;;4.43;3.50;;;;;;;;;;5030985;28;20281;-87
2023/05/13 07:42:32;;;;;;;4.13;3.80;;;;;;;;;;5030979;28;20699;-86
2023/05/13 07:44:59;;;;;;;3.57;3.10;;;;;;;;;;5030707;28;20705;-85
2023/05/13 07:47:27;;;;;;;3.57;2.50;;;;;;;;;;5028579;28;20603;-85
2023/05/13 07:49:54;;;;;;;2.57;2.37;;;;;;;;;;5030243;28;20223;-86
2023/05/13 07:52:22;;;;;;;2.80;2.60;;;;;;;;;;5030439;28;20230;-87
2023/05/13 07:54:49;;;;;;;3.70;2.90;;;;;;;;;;5031041;28;20237;-85
2023/05/13 07:57:16;;;;;;;3.20;2.90;;;;;;;;;;5029652;28;20288;-85
2023/05/13 07:59:44;;;;;;;7.77;3.07;;;;;;;;;;5030379;28;20211;-86
2023/05/13 08:02:12;;;;;;;20.33;4.30;;;;;;;;;;5028030;28;20238;-86
2023/05/13 08:04:39;;;;;;;2.77;2.57;;;;;;;;;;5030369;28;20254;-87
2023/05/13 08:07:06;;;;;;;4.50;2.97;;;;;;;;;;5029237;28;20227;-86
2023/05/13 08:09:33;;;;;;;2.60;2.40;;;;;;;;;;5029784;28;20210;-86
2023/05/13 08:12:00;;;;;;;4.63;3.22;;;;;;;;;;5033561;28;20230;-87
2023/05/13 08:14:28;;;;;;;2.78;2.53;;;;;;;;;;5034258;28;20645;-87
2023/05/13 08:16:56;;;;;;;2.53;2.30;;;;;;;;;;5033769;28;20238;-87
2023/05/13 08:19:23;;;;;;;2.70;2.50;;;;;;;;;;5034054;28;20581;-87
2023/05/13 08:21:50;;;;;;;2.42;2.22;;;;;;;;;;5031146;28;20226;-87
2023/05/13 08:24:18;;;;;;;2.38;2.28;;;;;;;;;;5034060;28;20234;-86
2023/05/13 08:26:46;;;;;;;2.38;2.22;;;;;;;;;;5033485;28;21210;-86
2023/05/13 08:29:14;;;;;;;2.63;2.42;;;;;;;;;;5033858;28;20861;-87
2023/05/13 08:31:41;;;;;;;6.47;2.92;;;;;;;;;;5033828;28;20284;-86
2023/05/13 08:34:10;;;;;;;4.55;2.25;;;;;;;;;;5033961;28;20227;-86
2023/05/13 08:36:37;;;;;;;2.50;2.28;;;;;;;;;;5033202;28;20265;-86
2023/05/13 08:39:04;;;;;;;3.28;2.50;;;;;;;;;;5022447;28;20206;-86
2023/05/13 08:41:31;;;;;;;2.63;2.15;;;;;;;;;;5033432;28;20237;-86
2023/05/13 08:43:59;;;;;;;4.15;2.70;;;;;;;;;;5034478;28;20230;-88
2023/05/13 08:46:27;;;;;;;4.07;2.72;;;;;;;;;;5034739;28;20226;-87
2023/05/13 08:48:55;;;;;;;18.98;4.30;;;;;;;;;;5033917;28;20228;-87
2023/05/13 08:51:23;;;;;;;4.50;2.38;;;;;;;;;;5034644;28;20284;-86
2023/05/13 08:53:52;;;;;;;2.17;2.05;;;;;;;;;;5033729;28;20235;-86
2023/05/13 08:56:21;;;;;;;7.18;2.90;;;;;;;;;;5033454;28;20261;-86
2023/05/13 08:58:48;;;;;;;2.45;2.25;;;;;;;;;;5033736;28;20231;-86
2023/05/13 09:01:15;;;;;;;2.42;1.92;;;;;;;;;;5033429;28;20281;-86
2023/05/13 09:03:45;;;;;;;2.10;2.00;;;;;;;;;;5033644;28;20261;-86
2023/05/13 09:06:12;;;;;;;3.10;2.05;;;;;;;;;;5033359;28;20716;-86
2023/05/13 09:08:41;;;;;;;4.93;2.72;;;;;;;;;;5032810;28;20206;-86
2023/05/13 09:11:08;;;;;;;1.83;1.73;;;;;;;;;;5033043;28;20226;-87
2023/05/13 09:13:35;;;;;;;6.75;2.40;;;;;;;;;;5032973;28;20202;-86
2023/05/13 09:16:02;;;;;;;2.22;2.05;;;;;;;;;;5033248;28;20230;-87
2023/05/13 09:18:30;;;;;;;2.70;2.10;;;;;;;;;;5032784;28;20277;-86
2023/05/13 09:20:57;;;;;;;2.17;2.00;;;;;;;;;;5033125;28;20222;-87
2023/05/13 09:23:25;;;;;;;19.48;3.80;;;;;;;;;;5032672;28;20213;-88
2023/05/13 09:25:53;;;;;;;2.35;2.08;;;;;;;;;;5032623;28;20246;-87
2023/05/13 09:28:22;;;;;;;2.83;1.95;;;;;;;;;;5032696;28;20582;-87
2023/05/13 09:30:55;;;;;;;2.92;2.30;;;;;;;;;;5033081;28;20226;-86
2023/05/13 09:33:22;;;;;;;4.38;1.88;;;;;;;;;;5034017;28;20609;-87
2023/05/13 09:35:51;;;;;;;2.97;1.90;;;;;;;;;;5032666;28;20238;-87
2023/05/13 09:38:19;;;;;;;3.88;2.50;;;;;;;;;;5032453;28;20280;-87
2023/05/13 09:40:54;;;;;;;5.35;2.33;;;;;;;;;;5032692;28;20584;-87
2023/05/13 09:43:22;;;;;;;2.03;1.92;;;;;;;;;;5033613;28;20213;-88
2023/05/13 09:45:53;;;;;;;2.30;2.10;;;;;;;;;;5032682;28;20655;-88
2023/05/13 09:48:21;;;;;;;4.60;2.40;;;;;;;;;;5032287;28;20226;-87
2023/05/13 09:50:49;;;;;;;3.28;2.30;;;;;;;;;;5032069;28;20227;-87
2023/05/13 09:53:16;;;;;;;2.33;2.05;;;;;;;;;;5033036;28;20207;-87
2023/05/13 09:55:45;;;;;;;2.30;2.10;;;;;;;;;;5031667;28;20594;-88
2023/05/13 09:58:14;;;;;;;3.13;2.20;;;;;;;;;;5033796;28;20262;-89
2023/05/13 10:00:42;;;;;;;2.55;2.03;;;;;;;;;;5033906;28;20230;-87
2023/05/13 10:03:10;;;;;;;2.28;2.10;;;;;;;;;;5033969;28;20600;-87
2023/05/13 10:05:38;;;;;;;3.45;2.15;;;;;;;;;;5033208;28;20245;-87
2023/05/13 10:08:05;;;;;;;2.10;1.90;;;;;;;;;;5033214;28;20222;-86
2023/05/13 10:10:33;;;;;;;2.20;2.00;;;;;;;;;;5033228;28;20712;-88
2023/05/13 10:13:04;;;;;;;2.95;2.40;;;;;;;;;;5033845;28;20661;-86
2023/05/13 10:15:33;;;;;;;4.30;2.20;;;;;;;;;;5032083;28;20277;-87
2023/05/13 10:18:00;;;;;;;2.20;2.10;;;;;;;;;;5032270;28;20358;-86
2023/05/13 10:20:27;;;;;;;2.75;2.13;;;;;;;;;;5032503;28;20257;-87
2023/05/13 10:22:55;;;;;;;3.83;2.10;;;;;;;;;;5032997;28;20684;-88
2023/05/13 10:25:22;;;;;;;2.28;2.03;;;;;;;;;;5033870;28;20231;-87
2023/05/13 10:27:51;;;;;;;2.70;2.40;;;;;;;;;;5033370;28;20234;-87
2023/05/13 10:30:25;;;;;;;2.47;1.92;;;;;;;;;;5027905;28;20733;-88
2023/05/13 10:32:53;;;;;;;2.42;2.13;;;;;;;;;;5033602;28;20210;-86
2023/05/13 10:35:20;;;;;;;2.35;2.00;;;;;;;;;;5032442;28;20724;-88
2023/05/13 10:37:56;;;;;;;1.98;1.73;;;;;;;;;;5033544;28;20239;-87
2023/05/13 10:40:32;;;;;;;2.15;2.00;;;;;;;;;;5032860;28;20242;-87
2023/05/13 10:43:08;;;;;;;4.28;1.92;;;;;;;;;;5026054;28;20686;-90
2023/05/13 10:45:35;;;;;;;2.13;1.92;;;;;;;;;;5034323;28;20241;-88
2023/05/13 10:48:07;;;;;;;2.10;2.00;;;;;;;;;;5033767;28;20214;-87
2023/05/13 10:50:36;;;;;;;3.00;2.15;;;;;;;;;;5033701;28;20251;-88
2023/05/13 10:53:08;;;;;;;1.80;1.70;;;;;;;;;;5035033;28;20210;-88
2023/05/13 10:55:40;;;;;;;2.65;2.03;;;;;;;;;;5033587;28;20727;-88
2023/05/13 10:58:09;;;;;;;3.40;2.13;;;;;;;;;;5032124;28;20280;-88
2023/05/13 11:00:37;;;;;;;2.97;2.05;;;;;;;;;;5033829;28;20264;-87
2023/05/13 11:03:13;;;;;;;3.38;1.77;;;;;;;;;;5033013;28;20215;-88
2023/05/13 11:05:59;;;;;;;5.97;2.97;;;;;;;;;;5033251;28;20241;-87
2023/05/13 11:08:39;;;;;;;3.55;2.08;;;;;;;;;;5033348;28;20203;-89
2023/05/13 11:11:23;;;;;;;2.45;2.03;;;;;;;;;;5026576;28;20222;-89
2023/05/13 11:13:50;;;;;;;2.70;2.15;;;;;;;;;;5033626;28;20302;-89
2023/05/13 11:16:17;;;;;;;2.30;2.13;;;;;;;;;;5033776;28;20724;-89
2023/05/13 11:18:45;;;;;;;3.28;2.03;;;;;;;;;;5033635;28;20238;-89
2023/05/13 11:21:12;;;;;;;3.45;2.10;;;;;;;;;;5033867;28;20739;-89
2023/05/13 11:23:57;;;;;;;2.42;2.22;;;;;;;;;;5033844;28;20209;-89
2023/05/13 11:26:24;;;;;;;3.28;2.00;;;;;;;;;;5034413;28;20245;-91
2023/05/13 11:28:59;;;;;;;2.13;1.95;;;;;;;;;;5035324;28;20619;-89
2023/05/13 11:31:27;;;;;;;1.98;1.88;;;;;;;;;;5035870;28;20245;-90
2023/05/13 11:34:09;;;;;;;2.35;1.90;;;;;;;;;;5035341;28;20243;-89
2023/05/13 11:36:37;;;;;;;4.40;1.90;;;;;;;;;;5035600;28;20242;-88
2023/05/13 11:39:09;;;;;;;2.38;1.73;;;;;;;;;;5034284;28;20760;-90
2023/05/13 11:41:37;;;;;;;2.83;2.00;;;;;;;;;;5034831;28;20586;-90
2023/05/13 11:44:05;;;;;;;2.63;1.88;;;;;;;;;;5032746;28;20313;-88
2023/05/13 11:46:32;;;;;;;2.05;1.75;;;;;;;;;;5033627;28;20235;-88
2023/05/13 11:48:59;;;;;;;1.95;1.80;;;;;;;;;;5033692;28;20210;-89
2023/05/13 11:51:28;;;;;;;2.42;1.98;;;;;;;;;;5034364;28;20234;-91
2023/05/13 11:54:00;;;;;;;4.40;2.00;;;;;;;;;;5034912;28;20249;-89
2023/05/13 11:56:28;;;;;;;2.42;1.98;;;;;;;;;;5034288;28;20284;-89
2023/05/13 11:58:55;;;;;;;1.88;1.73;;;;;;;;;;5033119;28;20222;-89
2023/05/13 12:01:24;;;;;;;2.10;2.00;;;;;;;;;;5032954;28;20237;-89
2023/05/13 12:03:51;;;;;;;3.20;1.83;;;;;;;;;;5033989;28;20237;-89
2023/05/13 12:06:18;;;;;;;1.92;1.67;;;;;;;;;;5026238;28;20720;-88
2023/05/13 12:08:47;;;;;;;2.33;1.65;;;;;;;;;;5033408;28;20211;-88
2023/05/13 12:11:14;;;;;;;3.05;1.77;;;;;;;;;;5025218;28;20608;-90
2023/05/13 12:13:42;;;;;;;2.38;1.80;;;;;;;;;;5035744;28;20207;-89
2023/05/13 12:16:09;;;;;;;3.00;1.98;;;;;;;;;;5033855;28;20250;-88
2023/05/13 12:18:37;;;;;;;4.07;1.85;;;;;;;;;;5030869;28;20711;-86
2023/05/13 12:21:14;;;;;;;7.70;3.22;;;;;;;;;;5022633;28;20230;-86
2023/05/13 12:23:41;;;;;;;2.10;1.90;;;;;;;;;;5030760;28;20202;-86
2023/05/13 12:26:10;;;;;;;1.80;1.70;;;;;;;;;;5031390;28;20230;-88
2023/05/13 12:28:37;;;;;;;2.30;1.70;;;;;;;;;;5035111;28;20211;-88
2023/05/13 12:31:05;;;;;;;3.30;1.98;;;;;;;;;;5029738;28;20611;-84
2023/05/13 12:33:33;;;;;;;2.00;1.83;;;;;;;;;;5030291;28;20210;-85
2023/05/13 12:36:15;;;;;;;4.93;2.30;;;;;;;;;;5029231;28;20235;-80
2023/05/13 12:38:54;;;;;;;2.30;2.10;;;;;;;;;;5026243;28;20226;-82
2023/05/13 12:41:24;;;;;;;12.45;6.22;;;;;;;;;;5029737;28;20254;-84
2023/05/13 12:43:51;;;;;;;12.98;7.15;;;;;;;;;;5030790;28;20203;-81
2023/05/13 12:46:18;;;;;;;34.90;18.35;;;;;;;;;;5029663;28;20235;-82
2023/05/13 12:48:45;;;;;;;3.20;2.08;;;;;;;;;;5029877;28;20211;-85
2023/05/13 12:51:14;;;;;;;4.32;2.22;;;;;;;;;;5031952;28;20226;-86
2023/05/13 12:53:41;;;;;;;3.25;2.10;;;;;;;;;;5036099;28;20203;-87
2023/05/13 12:56:08;;;;;;;2.30;2.10;;;;;;;;;;5037111;28;20235;-88
2023/05/13 12:58:37;;;;;;;2.50;2.05;;;;;;;;;;5041573;28;20265;-88
2023/05/13 13:01:04;;;;;;;4.70;2.17;;;;;;;;;;5041122;28;20264;-86
2023/05/13 13:03:32;;;;;;;2.25;2.05;;;;;;;;;;5042106;28;20206;-88
2023/05/13 13:05:59;;;;;;;2.72;2.00;;;;;;;;;;5039926;28;20265;-87
2023/05/13 13:08:26;;;;;;;2.78;1.98;;;;;;;;;;5041457;28;20198;-92
2023/05/13 13:10:53;;;;;;;2.13;1.92;;;;;;;;;;5045745;28;20230;-94
2023/05/13 13:13:20;;;;;;;3.55;2.10;;;;;;;;;;5046223;28;20820;-93
2023/05/13 13:15:49;;;;;;;7.25;2.92;;;;;;;;;;5045160;28;20604;-92
2023/05/13 13:18:16;;;;;;;2.25;1.75;;;;;;;;;;5043877;28;20673;-93
2023/05/13 13:20:43;;;;;;;2.65;1.95;;;;;;;;;;5043396;28;20313;-92
2023/05/13 13:23:20;;;;;;;3.03;1.83;;;;;;;;;;5043984;28;20222;-91
2023/05/13 13:25:47;;;;;;;4.10;1.60;;;;;;;;;;5043600;28;20257;-92
2023/05/13 13:28:14;;;;;;;2.25;1.88;;;;;;;;;;5043816;28;20293;-91
2023/05/13 13:30:45;;;;;;;3.78;1.80;;;;;;;;;;5042142;28;20241;-93
2023/05/13 13:33:14;;;;;;;2.17;1.98;;;;;;;;;;5043432;28;20241;-94
2023/05/13 13:35:42;;;;;;;2.10;1.58;;;;;;;;;;5045465;28;20231;-93
2023/05/13 13:38:09;;;;;;;1.63;1.52;;;;;;;;;;5049902;28;20207;-91
2023/05/13 13:40:36;;;;;;;1.48;1.30;;;;;;;;;;5049425;28;20298;-91
2023/05/13 13:43:03;;;;;;;2.10;1.60;;;;;;;;;;5044066;28;20203;-92
2023/05/13 13:45:31;;;;;;;2.03;1.77;;;;;;;;;;5041114;28;20292;-89
2023/05/13 13:47:58;;;;;;;1.98;1.50;;;;;;;;;;5042110;28;20675;-90
2023/05/13 13:50:27;;;;;;;1.65;1.48;;;;;;;;;;5039600;28;20234;-87
2023/05/13 13:52:55;;;;;;;2.35;1.30;;;;;;;;;;5040799;28;20246;-90
2023/05/13 13:55:22;;;;;;;1.70;1.60;;;;;;;;;;5038099;28;20231;-87
2023/05/13 13:57:50;;;;;;;1.65;1.55;;;;;;;;;;5038308;28;20217;-87
2023/05/13 14:00:17;;;;;;;1.55;1.45;;;;;;;;;;5038669;28;20223;-87
2023/05/13 14:02:45;;;;;;;1.65;1.48;;;;;;;;;;5039179;28;20203;-87
2023/05/13 14:05:12;;;;;;;1.83;1.52;;;;;;;;;;5038700;28;20238;-88
2023/05/13 14:07:40;;;;;;;1.80;1.70;;;;;;;;;;5033912;28;20214;-87
2023/05/13 14:10:08;;;;;;;1.60;1.40;;;;;;;;;;5038308;28;20550;-88
2023/05/13 14:12:35;;;;;;;1.80;1.70;;;;;;;;;;5039679;28;20211;-88
2023/05/13 14:15:02;;;;;;;2.20;1.83;;;;;;;;;;5038806;28;20222;-88
2023/05/13 14:17:30;;;;;;;1.63;1.52;;;;;;;;;;5039335;28;20230;-88
2023/05/13 14:19:57;;;;;;;1.90;1.80;;;;;;;;;;5038838;28;20230;-87
2023/05/13 14:22:24;;;;;;;3.15;1.52;;;;;;;;;;5038369;28;20239;-87
2023/05/13 14:24:53;;;;;;;2.60;1.70;;;;;;;;;;5039523;28;20231;-87
2023/05/13 14:27:21;;;;;;;1.55;1.45;;;;;;;;;;5038608;28;20223;-88
2023/05/13 14:29:49;;;;;;;1.83;1.67;;;;;;;;;;5041484;28;20209;-92
2023/05/13 14:32:16;;;;;;;1.70;1.60;;;;;;;;;;5018090;28;20246;-89
2023/05/13 14:34:43;;;;;;;1.73;1.63;;;;;;;;;;5041157;28;20223;-90
2023/05/13 14:37:10;;;;;;;1.80;1.70;;;;;;;;;;5041452;28;20232;-89
2023/05/13 14:39:37;;;;;;;2.17;1.77;;;;;;;;;;5040413;28;20229;-90
2023/05/13 14:42:06;;;;;;;1.92;1.73;;;;;;;;;;5041499;28;20230;-90
2023/05/13 14:44:35;;;;;;;3.40;2.10;;;;;;;;;;5041361;28;20277;-90
2023/05/13 14:47:02;;;;;;;2.03;1.83;;;;;;;;;;5039890;28;20238;-94